createdAt,value
2023-03-15T00:02:02.430Z,8.50
2023-03-15T00:04:35.096Z,8.60
2023-03-15T00:07:04.218Z,8.50
2023-03-15T00:09:33.387Z,8.50
2023-03-15T00:12:02.789Z,8.40
2023-03-15T00:14:31.996Z,8.40
2023-03-15T00:17:01.116Z,8.40
2023-03-15T00:19:30.410Z,8.40
2023-03-15T00:21:59.521Z,8.50
2023-03-15T00:24:28.801Z,8.40
2023-03-15T00:26:58.074Z,8.30
2023-03-15T00:29:27.576Z,8.20
2023-03-15T00:31:56.631Z,8.20
2023-03-15T00:34:26.012Z,8.10
2023-03-15T00:36:55.096Z,8.00
2023-03-15T00:39:25.872Z,8.10
2023-03-15T00:41:56.957Z,8.10
2023-03-15T00:44:28.142Z,8.00
2023-03-15T00:46:57.292Z,8.00
2023-03-15T00:49:26.399Z,7.90
2023-03-15T00:51:56.002Z,7.90
2023-03-15T00:54:25.205Z,8.00
2023-03-15T00:56:54.570Z,8.00
2023-03-15T00:59:23.788Z,8.20
2023-03-15T01:01:52.867Z,8.20
2023-03-15T01:04:24.589Z,8.40
2023-03-15T01:06:53.790Z,8.50
2023-03-15T01:09:23.895Z,8.60
2023-03-15T01:11:52.988Z,8.60
2023-03-15T01:14:22.252Z,8.70
2023-03-15T01:16:51.575Z,8.80
2023-03-15T01:19:20.701Z,8.80
2023-03-15T01:21:49.739Z,8.90
2023-03-15T01:24:19.762Z,9.00
2023-03-15T01:26:51.097Z,9.10
2023-03-15T01:29:20.220Z,9.10
2023-03-15T01:31:49.492Z,9.10
2023-03-15T01:34:18.875Z,9.20
2023-03-15T01:36:55.079Z,9.20
2023-03-15T01:39:30.803Z,9.20
2023-03-15T01:41:59.977Z,9.30
2023-03-15T01:45:00.126Z,9.30
2023-03-15T01:47:29.582Z,9.30
2023-03-15T01:50:06.588Z,9.20
2023-03-15T01:52:39.147Z,9.20
2023-03-15T01:55:16.063Z,9.20
2023-03-15T01:58:02.228Z,9.20
2023-03-15T02:00:33.402Z,9.20
2023-03-15T02:03:18.927Z,9.30
2023-03-15T02:05:56.682Z,9.20
2023-03-15T02:08:43.929Z,9.20
2023-03-15T02:11:13.810Z,9.10
2023-03-15T02:13:45.129Z,9.10
2023-03-15T02:16:14.489Z,9.10
2023-03-15T02:18:48.833Z,9.00
2023-03-15T02:21:25.984Z,9.00
2023-03-15T02:24:21.254Z,9.00
2023-03-15T02:26:55.206Z,9.00
2023-03-15T02:29:27.120Z,9.00
2023-03-15T02:31:57.878Z,9.00
2023-03-15T02:34:27.935Z,8.90
2023-03-15T02:36:57.631Z,9.00
2023-03-15T02:39:29.604Z,9.00
2023-03-15T02:41:59.581Z,9.00
2023-03-15T02:44:37.196Z,9.00
2023-03-15T02:47:11.667Z,8.90
2023-03-15T02:49:43.680Z,8.90
2023-03-15T02:52:14.131Z,8.90
2023-03-15T02:54:43.904Z,8.90
2023-03-15T02:57:14.439Z,8.90
2023-03-15T02:59:44.102Z,8.90
2023-03-15T03:02:14.552Z,8.90
2023-03-15T03:04:45.718Z,8.80
2023-03-15T03:07:15.373Z,8.80
2023-03-15T03:09:49.771Z,8.70
2023-03-15T03:12:20.313Z,8.70
2023-03-15T03:14:50.090Z,8.60
2023-03-15T03:17:23.821Z,8.60
2023-03-15T03:19:53.230Z,8.50
2023-03-15T03:22:28.740Z,8.50
2023-03-15T03:24:57.829Z,8.50
2023-03-15T03:27:27.147Z,8.50
2023-03-15T03:29:56.314Z,8.50
2023-03-15T03:32:25.682Z,8.40
2023-03-15T03:34:55.508Z,8.30
2023-03-15T03:37:25.881Z,8.30
2023-03-15T03:40:08.378Z,8.30
2023-03-15T03:42:38.333Z,8.20
2023-03-15T03:45:08.673Z,8.20
2023-03-15T03:47:45.044Z,8.20
2023-03-15T03:50:14.151Z,8.20
2023-03-15T03:52:43.984Z,8.10
2023-03-15T03:55:18.829Z,8.20
2023-03-15T03:57:48.081Z,8.10
2023-03-15T04:00:26.579Z,8.10
2023-03-15T04:02:56.101Z,8.10
2023-03-15T04:05:25.365Z,8.00
2023-03-15T04:07:54.620Z,8.00
2023-03-15T04:10:26.937Z,8.00
2023-03-15T04:12:57.289Z,7.90
2023-03-15T04:15:27.282Z,7.90
2023-03-15T04:17:56.671Z,7.90
2023-03-15T04:20:27.948Z,7.80
2023-03-15T04:22:57.079Z,7.80
2023-03-15T04:25:36.633Z,7.80
2023-03-15T04:28:17.644Z,7.80
2023-03-15T04:30:58.955Z,7.80
2023-03-15T04:33:40.374Z,7.70
2023-03-15T04:36:29.982Z,7.70
2023-03-15T04:39:17.976Z,7.70
2023-03-15T04:42:10.200Z,7.70
2023-03-15T04:44:54.945Z,7.70
2023-03-15T04:47:41.233Z,7.60
2023-03-15T04:50:34.699Z,7.50
2023-03-15T04:53:17.747Z,7.50
2023-03-15T04:56:10.809Z,7.30
2023-03-15T04:59:03.589Z,7.20
2023-03-15T05:01:51.327Z,7.00
2023-03-15T05:04:23.529Z,7.00
2023-03-15T05:07:15.516Z,6.90
2023-03-15T05:10:06.848Z,6.90
2023-03-15T05:12:38.770Z,6.80
2023-03-15T05:15:37.121Z,6.80
2023-03-15T05:18:18.863Z,6.70
2023-03-15T05:21:09.425Z,6.50
2023-03-15T05:23:58.791Z,6.50
2023-03-15T05:26:47.918Z,6.40
2023-03-15T05:29:35.571Z,6.40
2023-03-15T05:32:27.723Z,6.40
2023-03-15T05:35:15.563Z,6.40
2023-03-15T05:38:05.922Z,6.50
2023-03-15T05:41:06.626Z,6.50
2023-03-15T05:43:51.744Z,6.60
2023-03-15T05:46:59.103Z,6.60
2023-03-15T05:49:42.545Z,6.60
2023-03-15T05:52:30.957Z,6.70
2023-03-15T05:55:13.283Z,6.70
2023-03-15T05:58:08.494Z,6.80
2023-03-15T06:01:02.292Z,6.80
2023-03-15T06:03:51.025Z,6.80
2023-03-15T06:08:15.377Z,6.90
2023-03-15T06:10:48.195Z,7.00
2023-03-15T06:13:18.398Z,7.00
2023-03-15T06:15:48.299Z,7.10
2023-03-15T06:18:19.343Z,7.10
2023-03-15T06:20:51.091Z,7.20
2023-03-15T06:23:21.557Z,7.20
2023-03-15T06:25:51.835Z,7.30
2023-03-15T06:28:22.797Z,7.30
2023-03-15T06:30:57.033Z,7.40
2023-03-15T06:33:34.189Z,7.50
2023-03-15T06:36:04.303Z,7.50
2023-03-15T06:38:33.783Z,7.50
2023-03-15T06:41:05.235Z,7.50
2023-03-15T06:43:36.707Z,7.30
2023-03-15T06:46:06.021Z,7.20
2023-03-15T06:48:35.422Z,7.20
2023-03-15T06:51:06.051Z,7.30
2023-03-15T06:53:35.162Z,7.30
2023-03-15T06:56:04.844Z,7.40
2023-03-15T06:58:33.971Z,7.50
2023-03-15T07:01:03.528Z,7.60
2023-03-15T07:03:32.842Z,7.70
2023-03-15T07:06:01.903Z,7.70
2023-03-15T07:08:31.015Z,7.80
2023-03-15T07:11:00.178Z,7.80
2023-03-15T07:13:29.243Z,7.80
2023-03-15T07:15:58.583Z,7.80
2023-03-15T07:18:27.800Z,7.90
2023-03-15T07:20:58.704Z,7.80
2023-03-15T07:23:28.151Z,7.90
2023-03-15T07:25:57.341Z,7.90
2023-03-15T07:28:27.652Z,7.90
2023-03-15T07:31:01.859Z,8.00
2023-03-15T07:33:32.826Z,8.00
2023-03-15T07:36:04.417Z,8.00
2023-03-15T07:38:35.629Z,8.00
2023-03-15T07:41:06.703Z,8.10
2023-03-15T07:43:35.883Z,8.10
2023-03-15T07:46:15.807Z,8.10
2023-03-15T07:48:44.975Z,8.10
2023-03-15T07:51:14.159Z,8.20
2023-03-15T07:53:43.383Z,8.10
2023-03-15T07:56:12.465Z,8.10
2023-03-15T07:58:41.616Z,8.20
2023-03-15T08:01:10.749Z,8.30
2023-03-15T08:03:39.890Z,8.20
2023-03-15T08:06:08.991Z,8.20
2023-03-15T08:08:38.103Z,8.20
2023-03-15T08:11:07.217Z,8.30
2023-03-15T08:13:36.524Z,8.30
2023-03-15T08:16:05.828Z,8.30
2023-03-15T08:18:35.145Z,8.20
2023-03-15T08:21:04.434Z,8.10
2023-03-15T08:23:33.551Z,8.10
2023-03-15T08:26:02.679Z,8.10
2023-03-15T08:28:31.780Z,8.10
2023-03-15T08:31:00.905Z,8.10
2023-03-15T08:33:30.550Z,8.20
2023-03-15T08:35:59.691Z,8.20
2023-03-15T08:38:28.781Z,8.30
2023-03-15T08:40:58.590Z,8.30
2023-03-15T08:43:27.932Z,8.30
2023-03-15T08:46:00.954Z,8.30
2023-03-15T08:48:31.671Z,8.30
2023-03-15T08:51:05.414Z,8.30
2023-03-15T08:53:35.563Z,8.30
2023-03-15T08:56:04.742Z,8.40
2023-03-15T08:58:34.675Z,8.40
2023-03-15T09:01:05.055Z,8.50
2023-03-15T09:03:34.418Z,8.60
2023-03-15T09:06:03.674Z,8.70
2023-03-15T09:08:33.504Z,8.70
2023-03-15T09:11:02.658Z,8.80
2023-03-15T09:13:31.752Z,8.90
2023-03-15T09:16:00.883Z,9.00
2023-03-15T09:18:31.210Z,9.10
2023-03-15T09:21:01.737Z,9.20
2023-03-15T09:23:30.871Z,9.20
2023-03-15T09:26:00.121Z,9.30
2023-03-15T09:28:29.551Z,9.40
2023-03-15T09:31:00.038Z,9.50
2023-03-15T09:33:29.259Z,9.50
2023-03-15T09:35:58.368Z,9.60
2023-03-15T09:38:27.592Z,9.50
2023-03-15T09:40:59.057Z,9.40
2023-03-15T09:43:58.509Z,9.40
2023-03-15T09:46:32.780Z,9.40
2023-03-15T09:49:13.096Z,9.40
2023-03-15T09:51:51.147Z,9.40
2023-03-15T09:54:29.314Z,9.40
2023-03-15T09:57:06.898Z,9.50
2023-03-15T09:59:42.896Z,9.60
2023-03-15T10:02:19.485Z,9.60
2023-03-15T10:04:51.966Z,9.60
2023-03-15T10:07:21.150Z,9.60
2023-03-15T10:09:50.237Z,9.60
2023-03-15T10:12:26.624Z,9.60
2023-03-15T10:15:43.155Z,9.60
2023-03-15T10:18:40.639Z,9.60
2023-03-15T10:21:29.543Z,9.70
2023-03-15T10:23:59.516Z,9.90
2023-03-15T10:26:34.974Z,10.10
2023-03-15T10:29:12.138Z,10.10
2023-03-15T10:31:44.861Z,10.00
2023-03-15T10:34:15.866Z,10.00
2023-03-15T10:36:49.304Z,10.00
2023-03-15T10:39:19.392Z,9.80
2023-03-15T10:41:50.799Z,9.80
2023-03-15T10:44:25.931Z,10.00
2023-03-15T10:47:21.351Z,9.90
2023-03-15T10:49:59.268Z,9.80
2023-03-15T10:52:31.860Z,9.70
2023-03-15T10:55:28.793Z,9.70
2023-03-15T10:58:02.456Z,9.90
2023-03-15T11:00:33.825Z,10.20
2023-03-15T11:03:08.210Z,10.40
2023-03-15T11:05:43.559Z,10.60
2023-03-15T11:08:20.781Z,10.60
2023-03-15T11:11:00.271Z,10.70
2023-03-15T11:13:32.524Z,10.70
2023-03-15T11:16:04.537Z,10.60
2023-03-15T11:18:58.810Z,10.60
2023-03-15T11:21:33.733Z,10.40
2023-03-15T11:24:06.076Z,10.40
2023-03-15T11:26:38.755Z,10.60
2023-03-15T11:29:35.490Z,10.60
2023-03-15T11:32:15.483Z,10.60
2023-03-15T11:34:53.298Z,10.60
2023-03-15T11:37:32.987Z,10.50
2023-03-15T11:40:13.226Z,10.50
2023-03-15T11:42:58.197Z,10.70
2023-03-15T11:45:35.701Z,10.90
2023-03-15T11:48:59.672Z,11.10
2023-03-15T11:51:34.642Z,11.10
2023-03-15T11:54:16.323Z,11.30
2023-03-15T11:57:34.661Z,11.30
2023-03-15T12:00:38.621Z,11.00
2023-03-15T12:03:34.476Z,10.90
2023-03-15T12:06:11.122Z,11.00
2023-03-15T12:08:52.332Z,11.10
2023-03-15T12:11:21.479Z,11.10
2023-03-15T12:13:53.367Z,11.10
2023-03-15T12:16:23.986Z,11.30
2023-03-15T12:18:57.592Z,11.50
2023-03-15T12:21:39.237Z,11.60
2023-03-15T12:24:21.626Z,11.60
2023-03-15T12:27:01.134Z,11.80
2023-03-15T12:29:32.692Z,11.90
2023-03-15T12:32:01.829Z,12.20
2023-03-15T12:34:37.345Z,12.30
2023-03-15T12:37:09.566Z,11.90
2023-03-15T12:39:43.510Z,11.70
2023-03-15T12:42:31.907Z,11.50
2023-03-15T12:45:15.948Z,11.50
2023-03-15T12:47:51.458Z,11.60
2023-03-15T12:50:53.144Z,11.70
2023-03-15T12:53:39.107Z,11.60
2023-03-15T12:56:40.456Z,11.50
2023-03-15T12:59:17.822Z,11.40
2023-03-15T13:01:47.248Z,11.40
2023-03-15T13:04:16.494Z,11.50
2023-03-15T13:07:15.993Z,11.60
2023-03-15T13:10:06.744Z,11.50
2023-03-15T13:12:44.647Z,11.40
2023-03-15T13:15:23.196Z,11.40
2023-03-15T13:18:03.756Z,11.30
2023-03-15T13:20:49.176Z,11.10
2023-03-15T13:23:23.606Z,10.80
2023-03-15T13:26:12.947Z,10.60
2023-03-15T13:29:06.486Z,10.60
2023-03-15T13:31:35.628Z,10.60
2023-03-15T13:34:24.208Z,10.60
2023-03-15T13:36:58.844Z,10.50
2023-03-15T13:39:33.482Z,10.50
2023-03-15T13:42:19.737Z,10.40
2023-03-15T13:44:48.836Z,10.20
2023-03-15T13:47:23.816Z,10.00
2023-03-15T13:49:53.252Z,9.90
2023-03-15T13:52:22.870Z,10.00
2023-03-15T13:54:54.078Z,10.00
2023-03-15T13:57:23.855Z,10.10
2023-03-15T14:00:02.053Z,10.10
2023-03-15T14:02:43.137Z,10.10
2023-03-15T14:05:17.625Z,10.00
2023-03-15T14:07:51.233Z,9.90
2023-03-15T14:10:23.232Z,9.80
2023-03-15T14:12:53.772Z,9.70
2023-03-15T14:15:44.315Z,9.70
2023-03-15T14:18:24.773Z,9.60
2023-03-15T14:21:02.849Z,9.60
2023-03-15T14:23:32.961Z,9.80
2023-03-15T14:26:10.536Z,9.80
2023-03-15T14:28:40.991Z,9.60
2023-03-15T14:31:23.360Z,9.40
2023-03-15T14:34:01.052Z,9.20
2023-03-15T14:36:40.363Z,9.00
2023-03-15T14:39:35.683Z,8.90
2023-03-15T14:42:05.389Z,8.80
2023-03-15T14:44:34.571Z,8.90
2023-03-15T14:47:14.150Z,8.80
2023-03-15T14:49:43.351Z,8.90
2023-03-15T14:52:13.490Z,8.80
2023-03-15T14:54:49.727Z,8.90
2023-03-15T14:57:19.001Z,8.80
2023-03-15T14:59:50.160Z,8.70
2023-03-15T15:02:19.442Z,8.60
2023-03-15T15:04:48.604Z,8.50
2023-03-15T15:07:18.411Z,8.40
2023-03-15T15:09:50.393Z,8.30
2023-03-15T15:12:19.650Z,8.20
2023-03-15T15:14:48.720Z,8.10
2023-03-15T15:17:17.821Z,8.10
2023-03-15T15:19:47.187Z,8.10
2023-03-15T15:22:17.984Z,8.10
2023-03-15T15:24:47.228Z,8.10
2023-03-15T15:27:16.346Z,8.10
2023-03-15T15:29:45.433Z,8.10
2023-03-15T15:32:14.575Z,8.00
2023-03-15T15:34:43.649Z,7.90
2023-03-15T15:37:12.849Z,7.80
2023-03-15T15:39:42.022Z,7.70
2023-03-15T15:42:11.395Z,7.70
2023-03-15T15:44:41.532Z,7.70
2023-03-15T15:47:10.841Z,7.70
2023-03-15T15:49:41.442Z,7.70
2023-03-15T15:52:13.949Z,7.80
2023-03-15T15:54:43.316Z,7.80
2023-03-15T15:57:12.614Z,7.70
2023-03-15T15:59:41.821Z,7.60
2023-03-15T16:02:15.602Z,7.50
2023-03-15T16:04:44.818Z,7.40
2023-03-15T16:07:15.225Z,7.30
2023-03-15T16:09:46.437Z,7.20
2023-03-15T16:12:18.606Z,7.10
2023-03-15T16:14:47.924Z,6.90
2023-03-15T16:17:25.285Z,6.90
2023-03-15T16:19:54.904Z,6.80
2023-03-15T16:22:25.089Z,6.80
2023-03-15T16:24:57.836Z,6.80
2023-03-15T16:27:28.568Z,6.70
2023-03-15T16:29:57.749Z,6.60
2023-03-15T16:32:42.884Z,6.60
2023-03-15T16:35:17.178Z,6.50
2023-03-15T16:37:46.729Z,6.40
2023-03-15T16:40:23.204Z,6.30
2023-03-15T16:42:52.985Z,6.20
2023-03-15T16:45:22.548Z,6.20
2023-03-15T16:47:51.785Z,6.10
2023-03-15T16:50:20.880Z,6.10
2023-03-15T16:52:53.079Z,6.10
2023-03-15T16:55:28.248Z,6.00
2023-03-15T16:57:57.504Z,5.90
2023-03-15T17:00:26.984Z,5.80
2023-03-15T17:03:00.017Z,5.80
2023-03-15T17:05:29.150Z,5.90
2023-03-15T17:08:00.763Z,5.80
2023-03-15T17:10:31.783Z,5.80
2023-03-15T17:13:02.121Z,5.80
2023-03-15T17:15:31.286Z,5.80
2023-03-15T17:18:00.754Z,5.80
2023-03-15T17:20:30.356Z,5.80
2023-03-15T17:23:04.315Z,5.70
2023-03-15T17:25:34.495Z,5.70
2023-03-15T17:28:05.211Z,5.60
2023-03-15T17:30:36.275Z,5.60
2023-03-15T17:33:05.964Z,5.60
2023-03-15T17:35:44.060Z,5.60
2023-03-15T17:38:21.815Z,5.60
2023-03-15T17:40:51.480Z,5.50
2023-03-15T17:43:20.656Z,5.50
2023-03-15T17:45:50.232Z,5.50
2023-03-15T17:48:19.441Z,5.50
2023-03-15T17:50:48.626Z,5.50
2023-03-15T17:53:19.567Z,5.50
2023-03-15T17:55:49.248Z,5.50
2023-03-15T17:58:20.950Z,5.50
2023-03-15T18:00:51.288Z,5.50
2023-03-15T18:03:21.315Z,5.50
2023-03-15T18:05:51.058Z,5.50
2023-03-15T18:08:21.398Z,5.40
2023-03-15T18:10:51.744Z,5.40
2023-03-15T18:13:26.361Z,5.30
2023-03-15T18:15:55.707Z,5.30
2023-03-15T18:18:24.782Z,5.20
2023-03-15T18:20:54.052Z,5.20
2023-03-15T18:23:23.161Z,5.10
2023-03-15T18:25:52.368Z,5.00
2023-03-15T18:28:21.477Z,5.00
2023-03-15T18:30:50.678Z,4.90
2023-03-15T18:33:19.796Z,4.90
2023-03-15T18:35:49.118Z,4.80
2023-03-15T18:38:18.306Z,4.80
2023-03-15T18:40:47.535Z,4.80
2023-03-15T18:43:16.967Z,4.80
2023-03-15T18:45:46.170Z,4.80
2023-03-15T18:48:15.310Z,4.80
2023-03-15T18:50:44.537Z,4.70
2023-03-15T18:53:13.924Z,4.70
2023-03-15T18:55:44.614Z,4.70
2023-03-15T18:58:13.737Z,4.60
2023-03-15T19:00:42.896Z,4.60
2023-03-15T19:03:12.038Z,4.60
2023-03-15T19:05:41.898Z,4.70
2023-03-15T19:08:11.161Z,4.70
2023-03-15T19:10:40.454Z,4.70
2023-03-15T19:13:09.566Z,4.70
2023-03-15T19:15:38.852Z,4.70
2023-03-15T19:18:08.009Z,4.70
2023-03-15T19:20:37.247Z,4.70
2023-03-15T19:23:06.361Z,4.70
2023-03-15T19:25:35.522Z,4.70
2023-03-15T19:28:05.092Z,4.70
2023-03-15T19:30:34.324Z,4.70
2023-03-15T19:33:04.107Z,4.70
2023-03-15T19:35:33.742Z,4.70
2023-03-15T19:38:03.103Z,4.70
2023-03-15T19:40:32.231Z,4.70
2023-03-15T19:43:01.347Z,4.70
2023-03-15T19:45:30.500Z,4.70
2023-03-15T19:47:59.603Z,4.60
2023-03-15T19:50:31.342Z,4.60
2023-03-15T19:53:00.528Z,4.60
2023-03-15T19:55:31.721Z,4.60
2023-03-15T19:58:01.165Z,4.60
2023-03-15T20:00:30.822Z,4.50
2023-03-15T20:03:00.096Z,4.50
2023-03-15T20:05:29.256Z,4.50
2023-03-15T20:07:58.357Z,4.50
2023-03-15T20:10:27.610Z,4.40
2023-03-15T20:12:59.497Z,4.50
2023-03-15T20:15:29.524Z,4.40
2023-03-15T20:17:58.747Z,4.40
2023-03-15T20:20:27.965Z,4.40
2023-03-15T20:22:57.102Z,4.40
2023-03-15T20:25:26.216Z,4.30
2023-03-15T20:27:55.350Z,4.30
2023-03-15T20:30:24.924Z,4.30
2023-03-15T20:32:54.725Z,4.30
2023-03-15T20:35:23.930Z,4.30
2023-03-15T20:37:53.680Z,4.30
2023-03-15T20:40:23.398Z,4.20
2023-03-15T20:42:53.164Z,4.20
2023-03-15T20:45:22.266Z,4.20
2023-03-15T20:47:51.375Z,4.20
2023-03-15T20:50:20.894Z,4.20
2023-03-15T20:52:50.341Z,4.20
2023-03-15T20:55:19.477Z,4.30
2023-03-15T20:57:48.617Z,4.30
2023-03-15T21:00:20.008Z,4.30
2023-03-15T21:02:49.422Z,4.30
2023-03-15T21:05:19.232Z,4.30
2023-03-15T21:07:48.393Z,4.30
2023-03-15T21:10:17.635Z,4.30
2023-03-15T21:12:46.772Z,4.20
2023-03-15T21:15:17.969Z,4.20
2023-03-15T21:17:50.595Z,4.20
2023-03-15T21:20:19.731Z,4.10
2023-03-15T21:22:48.849Z,4.10
2023-03-15T21:25:18.112Z,4.00
2023-03-15T21:27:47.354Z,4.00
2023-03-15T21:30:16.554Z,4.00
2023-03-15T21:32:45.898Z,4.00
2023-03-15T21:35:17.192Z,4.00
2023-03-15T21:37:46.363Z,4.00
2023-03-15T21:40:15.802Z,4.00
2023-03-15T21:42:47.707Z,4.00
2023-03-15T21:45:17.212Z,4.00
2023-03-15T21:47:47.056Z,3.90
2023-03-15T21:50:16.433Z,3.90
2023-03-15T21:52:45.608Z,3.90
2023-03-15T21:55:15.518Z,3.90
2023-03-15T21:57:44.846Z,3.90
2023-03-15T22:00:19.691Z,3.90
2023-03-15T22:02:49.411Z,3.90
2023-03-15T22:05:18.999Z,4.00
2023-03-15T22:07:48.151Z,4.00
2023-03-15T22:10:19.287Z,4.00
2023-03-15T22:12:48.661Z,4.00
2023-03-15T22:15:17.787Z,4.00
2023-03-15T22:17:47.366Z,4.00
2023-03-15T22:20:17.114Z,3.90
2023-03-15T22:22:47.673Z,3.90
2023-03-15T22:25:17.263Z,3.80
2023-03-15T22:27:46.367Z,3.80
2023-03-15T22:30:16.034Z,3.70
2023-03-15T22:32:45.194Z,3.60
2023-03-15T22:35:16.060Z,3.60
2023-03-15T22:37:45.195Z,3.50
2023-03-15T22:40:14.498Z,3.40
2023-03-15T22:42:44.322Z,3.30
2023-03-15T22:45:13.563Z,3.20
2023-03-15T22:47:42.692Z,3.20
2023-03-15T22:50:13.455Z,3.20
2023-03-15T22:52:42.852Z,3.20
2023-03-15T22:55:12.744Z,3.30
2023-03-15T22:57:41.907Z,3.30
2023-03-15T23:00:13.767Z,3.30
2023-03-15T23:02:44.430Z,3.30
2023-03-15T23:05:14.255Z,3.30
2023-03-15T23:07:43.741Z,3.20
2023-03-15T23:10:13.930Z,3.10
2023-03-15T23:12:43.101Z,2.90
2023-03-15T23:15:14.565Z,2.80
2023-03-15T23:17:47.024Z,2.70
2023-03-15T23:22:48.161Z,2.50
2023-03-15T23:25:20.256Z,2.50
2023-03-15T23:27:50.323Z,2.40
2023-03-15T23:30:19.620Z,2.40
2023-03-15T23:32:52.440Z,2.30
2023-03-15T23:35:22.297Z,2.20
2023-03-15T23:37:53.164Z,2.10
2023-03-15T23:40:22.716Z,2.00
2023-03-15T23:42:58.875Z,1.90
2023-03-15T23:45:30.096Z,1.80
2023-03-15T23:47:59.299Z,1.70
2023-03-15T23:50:29.424Z,1.70
2023-03-15T23:52:58.736Z,1.60
2023-03-15T23:55:27.895Z,1.70
2023-03-15T23:57:56.955Z,1.70
